• Join FlightAware (Why Join?)
  • Login
  • US Flag 
12:05PM EDT


 

Airport Tracker/Info


-or-


 

Live Flight TrackerFlight Track Log ✈ RAX81 ✈ 17-May-2013 ✈ KFTY - KBWI

Flight Track Log - Related Links

Times and Time Zones

All times are in EDT time to prevent confusion due to time zone crossing. See the RAX81 flight status page for this flight to view local times or setup timezone preferences in your user account.

Time Position Orientation Groundspeed Altitude Reporting Facility
EDT Latitude Longitude Course Direction KTS MPH feet Rate Location/Type
01:37AM 33.8333 -84.4167 79° East 165 190 3,900  Level Atlanta TRACON
01:38AM 33.8500 -84.3667 68° East 183 211 5,200 1,380 Climbing Atlanta TRACON
01:39AM 33.8667 -84.3167 68° East 186 214 6,700 1,380 Climbing Atlanta TRACON
01:40AM 33.9236 -84.2167 56° Northeast 184 212 9,300 1,260 Climbing Atlanta Center
01:41AM 33.9528 -84.1689 54° Northeast 178 205 10,500 1,140 Climbing Atlanta Center
01:42AM 33.8401 -84.0096 79° East  Level FlightAware Approximate
01:42AM 33.9842 -84.1264 48° Northeast 178 205 11,600  Level Atlanta Center
01:43AM 34.0175 -84.0814 48° Northeast 173 199 12,600 960 Climbing Atlanta Center
01:44AM 34.0531 -84.0364 46° Northeast 178 205 13,600 900 Climbing Atlanta Center
01:45AM 34.0844 -83.9886 52° Northeast 183 211 14,500 900 Climbing Atlanta Center
01:46AM 34.1178 -83.9408 50° Northeast 183 211 15,400 780 Climbing Atlanta Center
01:47AM 34.1469 -83.9008 49° Northeast 183 211 16,100 600 Climbing Atlanta Center
01:48AM 34.1803 -83.8506 51° Northeast 188 216 16,700 600 Climbing Atlanta Center
01:49AM 34.2178 -83.8028 46° Northeast 188 216 17,400 600 Climbing Atlanta Center
01:50AM 34.2511 -83.7547 50° Northeast 188 216 18,000 600 Climbing Atlanta Center
01:51AM 34.2864 -83.7019 51° Northeast 188 216 18,600 540 Climbing Atlanta Center
01:52AM 34.3217 -83.6539 48° Northeast 188 216 19,100 540 Climbing Atlanta Center
01:53AM 34.3611 -83.6008 48° Northeast 188 216 19,700 540 Climbing Atlanta Center
01:54AM 34.3944 -83.5478 53° Northeast 188 216 20,200 480 Climbing Atlanta Center
01:55AM 34.4317 -83.4997 47° Northeast 188 216 20,700 480 Climbing Atlanta Center
01:56AM 34.4669 -83.4492 50° Northeast 188 216 21,200 480 Climbing Atlanta Center
01:57AM 34.5022 -83.4011 48° Northeast 188 216 21,700 420 Climbing Atlanta Center
01:58AM 34.5394 -83.3528 47° Northeast 183 211 22,100 300 Climbing Atlanta Center
01:59AM 34.5725 -83.3022 52° Northeast 188 216 22,400 300 Climbing Atlanta Center
02:00AM 34.6078 -83.2514 50° Northeast 188 216 22,800 300 Climbing Atlanta Center
02:01AM 34.6450 -83.2031 47° Northeast 188 216 23,100 120 Climbing Atlanta Center
02:02AM 34.6800 -83.1497 51° Northeast 194 223 23,100  Level Atlanta Center
02:03AM 34.7131 -83.1014 50° Northeast 201 231 23,100  Level Atlanta Center
02:04AM 34.7544 -83.0453 48° Northeast 210 242 23,100  Level Atlanta Center
02:05AM 34.7936 -82.9892 50° Northeast 210 242 23,100  Level Atlanta Center
02:06AM 34.8286 -82.9278 55° Northeast 210 242 23,100  Level Atlanta Center
02:07AM 34.8697 -82.8717 48° Northeast 210 242 23,100  Level Atlanta Center
02:08AM 34.9111 -82.8178 47° Northeast 210 242 23,100  Level Atlanta Center
02:09AM 34.9481 -82.7642 50° Northeast 215 247 23,100  Level Atlanta Center
02:10AM 34.9892 -82.7053 50° Northeast 209 241 23,100 -60 Level Atlanta Center
02:11AM 35.0303 -82.6539 46° Northeast 209 241 23,000 -420 Descending Atlanta Center
02:12AM 35.0714 -82.5897 52° Northeast 216 249 22,300 -600 Descending Atlanta Center
02:13AM 35.1164 -82.5331 46° Northeast 227 261 21,800 -480 Descending Atlanta Center
02:14AM 35.1617 -82.4686 49° Northeast 237 273 21,400 -360 Descending Atlanta Center
02:15AM 35.2044 -82.4044 51° Northeast 242 278 21,100 -240 Descending Atlanta Center
02:16AM 35.2475 -82.3450 48° Northeast 237 273 21,000 -60 Descending Atlanta Center
02:17AM 35.2883 -82.2831 51° Northeast 237 273 21,000  Level Atlanta Center
02:18AM 35.3294 -82.2261 48° Northeast 223 257 21,000  Level Atlanta Center
02:19AM 35.3681 -82.1694 50° Northeast 216 249 21,000  Level Atlanta Center
02:20AM 35.4069 -82.1097 51° Northeast 216 249 21,000  Level Atlanta Center
02:21AM 35.4456 -82.0503 51° Northeast 216 249 21,000  Level Atlanta Center
02:22AM 35.4803 -82.0011 49° Northeast 216 249 21,000  Level Atlanta Center
02:23AM 35.5208 -81.9414 50° Northeast 211 243 21,000  Level Atlanta Center
02:24AM 35.5594 -81.8842 50° Northeast 211 243 21,000  Level Atlanta Center
02:25AM 35.5981 -81.8269 50° Northeast 211 243 21,000  Level Atlanta Center
02:26AM 35.6389 -81.7697 49° Northeast 211 243 21,000  Level Atlanta Center
02:27AM 35.6775 -81.7122 50° Northeast 211 243 21,000  Level Atlanta Center
02:28AM 35.7200 -81.6522 49° Northeast 211 243 21,000  Level Atlanta Center
02:29AM 35.7586 -81.5950 50° Northeast 216 249 21,000  Level Atlanta Center
02:30AM 35.7969 -81.5375 51° Northeast 211 243 21,000  Level Atlanta Center
02:31AM 35.8356 -81.4825 49° Northeast 211 243 21,000  Level Atlanta Center
02:32AM 35.8761 -81.4247 49° Northeast 211 243 21,000  Level Atlanta Center
02:33AM 35.9103 -81.3672 54° Northeast 211 243 21,000  Level Atlanta Center
02:34AM 35.9467 -81.3200 46° Northeast 211 243 21,000  Level Atlanta Center
02:35AM 35.9831 -81.2622 52° Northeast 211 243 21,000  Level Atlanta Center
02:36AM 36.0192 -81.2044 52° Northeast 211 243 21,000  Level Atlanta Center
02:37AM 36.0575 -81.1414 53° Northeast 211 243 21,000  Level Atlanta Center
02:38AM 36.0936 -81.0864 51° Northeast 211 243 21,000  Level Atlanta Center
02:39AM 36.1339 -81.0206 53° Northeast 211 243 21,000  Level Atlanta Center
02:40AM 36.1719 -80.9625 51° Northeast 211 243 21,000  Level Atlanta Center
02:41AM 36.2103 -80.9044 51° Northeast 211 243 21,000  Level Atlanta Center
02:43AM 36.2418 -80.8351 61° Northeast  Level FlightAware Approximate
02:47AM 36.4278 -80.5475 52° Northeast 211 243 21,000  Level Atlanta Center
02:50AM 36.4799 -80.4049 51° Northeast  Level FlightAware Approximate
02:50AM 36.5267 -80.4050 49° Northeast 219 252 21,000  Level Washington Center
02:51AM 36.5174 -80.3463 51° Northeast  Level FlightAware Approximate
02:51AM 36.5603 -80.3450 55° Northeast 219 252 21,000  Level Washington Center
02:52AM 36.5548 -80.2876 52° Northeast  Level FlightAware Approximate
02:52AM 36.5981 -80.2850 52° Northeast 214 246 21,000  Level Washington Center
02:53AM 36.5922 -80.2289 52° Northeast  Level FlightAware Approximate
02:53AM 36.6317 -80.2303 53° Northeast 220 253 21,000  Level Washington Center
02:54AM 36.6672 -80.1728 52° Northeast 220 253 21,000  Level Washington Center
02:55AM 36.7031 -80.1100 55° Northeast 220 253 21,000  Level Washington Center
02:56AM 36.7383 -80.0553 51° Northeast 215 247 21,000  Level Washington Center
02:57AM 36.7786 -79.9875 53° Northeast 215 247 21,000  Level Washington Center
02:58AM 36.8161 -79.9300 51° Northeast 215 247 21,000  Level Washington Center
02:59AM 36.8497 -79.8669 56° Northeast 215 247 21,000  Level Washington Center
03:00AM 36.8872 -79.8092 51° Northeast 215 247 21,000  Level Washington Center
03:01AM 36.9203 -79.7539 53° Northeast 215 247 21,000  Level Washington Center
03:02AM 36.9581 -79.6908 53° Northeast 215 247 21,000  Level Washington Center
03:03AM 36.9956 -79.6306 52° Northeast 215 247 21,000  Level Washington Center
03:04AM 37.0375 -79.5650 51° Northeast 215 247 21,000  Level Washington Center
03:05AM 37.0769 -79.5047 51° Northeast 215 247 21,000  Level Washington Center
03:06AM 37.1164 -79.4467 50° Northeast 215 247 21,000  Level Washington Center
03:07AM 37.1494 -79.3936 52° Northeast 215 247 21,000  Level Washington Center
03:08AM 37.1889 -79.3331 51° Northeast 215 247 21,000  Level Washington Center
03:09AM 37.2261 -79.2750 51° Northeast 215 247 21,000  Level Washington Center
03:10AM 37.2678 -79.2064 53° Northeast 215 247 21,000  Level Washington Center
03:11AM 37.3072 -79.1431 52° Northeast 215 247 21,000 -60 Level Washington Center
03:12AM 37.3444 -79.0819 53° Northeast 215 247 20,900 -60 Descending Washington Center
03:13AM 37.3817 -79.0211 52° Northeast 215 247 20,900  Level Washington Center
03:14AM 37.4147 -78.9650 53° Northeast 215 247 20,900  Level Washington Center
03:15AM 37.4519 -78.9011 54° Northeast 215 247 20,900  Level Washington Center
03:16AM 37.4889 -78.8400 53° Northeast 215 247 20,900  Level Washington Center
03:17AM 37.5306 -78.7711 53° Northeast 215 247 20,900  Level Washington Center
03:18AM 37.5694 -78.7125 50° Northeast 215 247 20,900  Level Washington Center
03:19AM 37.6067 -78.6483 54° Northeast 215 247 20,900  Level Washington Center
03:20AM 37.6394 -78.5919 54° Northeast 215 247 20,900  Level Washington Center
03:21AM 37.6783 -78.5331 50° Northeast 215 247 20,900  Level Washington Center
03:22AM 37.7153 -78.4692 54° Northeast 215 247 20,900  Level Washington Center
03:23AM 37.7522 -78.4100 52° Northeast 215 247 20,900  Level Washington Center
03:24AM 37.7914 -78.3378 56° Northeast 215 247 20,900  Level Washington Center
03:25AM 37.8306 -78.2736 52° Northeast 215 247 20,900  Level Washington Center
03:26AM 37.8672 -78.2117 53° Northeast 215 247 20,900  Level Washington Center
03:27AM 37.8936 -78.1547 60° Northeast 215 247 20,900  Level Washington Center
03:28AM 37.9303 -78.0928 53° Northeast 215 247 20,900  Level Washington Center
03:29AM 37.9669 -78.0308 53° Northeast 215 247 20,900  Level Washington Center
03:30AM 38.0017 -77.9661 56° Northeast 215 247 20,900  Level Washington Center
03:31AM 38.0383 -77.9092 51° Northeast 215 247 20,900  Level Washington Center
03:32AM 38.0750 -77.8469 53° Northeast 215 247 20,900 -120 Level Washington Center
03:33AM 38.1114 -77.7847 53° Northeast 215 247 20,700 -600 Descending Washington Center
03:34AM 38.1503 -77.7119 56° Northeast 225 259 19,800 -900 Descending Washington Center
03:35AM 38.1892 -77.6392 56° Northeast 236 272 19,000 -840 Descending Washington Center
03:36AM 38.2342 -77.5664 52° Northeast 246 283 18,200 -840 Descending Washington Center
03:37AM 38.2792 -77.4933 52° Northeast 251 289 17,400 -780 Descending Washington Center
03:38AM 38.3219 -77.4178 54° Northeast 256 295 16,700 -720 Descending Washington Center
03:39AM 38.3669 -77.3394 54° Northeast 262 302 16,000 -900 Descending Washington Center
03:40AM 38.4139 -77.2636 52° Northeast 267 307 15,000 -960 Descending Washington Center
03:42AM 38.4625 -77.1620 59° Northeast  Level FlightAware Approximate
03:48AM 38.8000 -76.7000 North 246 283 7,800  Level Potomac TRACON
03:48AM 38.8500 -76.7000 360° North 245 282 6,600 -1,260 Descending Potomac TRACON
03:49AM 38.7027 -76.7333 North  Level FlightAware Approximate
03:49AM 38.9167 -76.6833 11° North 223 257 5,600  Level Potomac TRACON
03:50AM 38.7623 -76.7333 North  Level FlightAware Approximate
03:50AM 38.9833 -76.6667 11° North 214 246 4,100  Level Potomac TRACON
03:51AM 38.8201 -76.7160 North  Level FlightAware Approximate
03:51AM 39.0333 -76.6500 15° North 215 247 2,500  Level Potomac TRACON
03:52AM 38.8789 -76.7042 North  Level FlightAware Approximate
03:53AM 38.9382 -76.7000 North  Level FlightAware Approximate
03:53AM 39.1000 -76.6500 360° North 192 221 1,500  Level Potomac TRACON
03:54AM 39.1333 -76.6333 21° North 157 181 800 -600 Descending Potomac TRACON
03:55AM 39.1667 -76.6500 339° North 109 125 300 -540 Descending Potomac TRACON
03:57AM 39.1667 -76.6667 North  Level FlightAware Approximate
04:04AM 39.1754 -76.6683 North  Level Estimated
04:05AM 39.1754 -76.6683 North  Level Estimated
04:06AM 39.1754 -76.6683 North  Level Estimated
04:07AM 39.1754 -76.6683 North  Level Estimated
04:08AM 39.1754 -76.6683 North  Level Estimated
04:09AM 39.1754 -76.6683 North  Level Estimated
04:10AM 39.1754 -76.6683 North  Level Estimated
04:11AM 39.1754 -76.6683 North  Level Estimated
04:12AM 39.1754 -76.6683 North  Level Estimated